Time;durP1;ratioP1;P1;durP2;ratioP2;P2;SDS_P1;SDS_P2;PMS_P1;PMS_P2;Temp;Humidity;BMP_temperature;BMP_pressure;BME280_temperature;BME280_humidity;BME280_pressure;Samples;Min_cycle;Max_cycle;Signal;HPM_P1;HPM_P2
2023/09/21 00:00:18;;;;;;;1.65;0.50;;;18.00;99.90;;;;;;4982351;28;20037;-72
2023/09/21 00:02:49;;;;;;;2.08;0.65;;;17.90;99.90;;;;;;5016377;28;20051;-72
2023/09/21 00:05:19;;;;;;;1.53;0.60;;;17.90;99.90;;;;;;5015737;28;20033;-73
2023/09/21 00:07:46;;;;;;;1.88;0.60;;;17.90;99.90;;;;;;4998219;28;20548;-73
2023/09/21 00:10:13;;;;;;;3.17;0.70;;;17.80;99.90;;;;;;5015416;28;20032;-72
2023/09/21 00:12:41;;;;;;;2.97;0.60;;;17.80;99.90;;;;;;5016280;28;20511;-72
2023/09/21 00:15:09;;;;;;;1.80;0.70;;;17.80;99.90;;;;;;5015413;28;20037;-72
2023/09/21 00:17:37;;;;;;;1.20;0.60;;;17.80;99.90;;;;;;5014657;28;20341;-72
2023/09/21 00:20:11;;;;;;;2.70;0.50;;;17.70;99.90;;;;;;4985217;28;20052;-72
2023/09/21 00:22:37;;;;;;;1.52;0.50;;;17.80;99.90;;;;;;5015529;28;20396;-72
2023/09/21 00:25:08;;;;;;;1.80;0.75;;;17.80;99.90;;;;;;5017249;28;20029;-72
2023/09/21 00:27:34;;;;;;;1.70;0.70;;;17.70;99.90;;;;;;5001195;28;20029;-72
2023/09/21 00:30:05;;;;;;;0.95;0.45;;;17.70;99.90;;;;;;5014952;28;20025;-73
2023/09/21 00:32:39;;;;;;;2.28;0.60;;;17.70;99.90;;;;;;4999109;28;20488;-73
2023/09/21 00:35:09;;;;;;;3.28;0.65;;;17.70;99.90;;;;;;4980920;28;20536;-73
2023/09/21 00:37:39;;;;;;;1.25;0.70;;;17.70;99.90;;;;;;4981387;28;21149;-72
2023/09/21 00:40:26;;;;;;;1.42;0.50;;;17.70;99.90;;;;;;4984177;28;20056;-73
2023/09/21 00:42:53;;;;;;;4.32;0.80;;;17.70;99.90;;;;;;4994351;28;21553;-73
2023/09/21 00:45:22;;;;;;;1.83;0.60;;;17.70;99.90;;;;;;5013325;28;20301;-72
2023/09/21 00:47:54;;;;;;;2.55;0.77;;;17.70;99.90;;;;;;4998711;28;20037;-72
2023/09/21 00:50:22;;;;;;;1.65;0.57;;;17.70;99.90;;;;;;5015045;28;20300;-72
2023/09/21 00:52:54;;;;;;;1.27;0.60;;;17.60;99.90;;;;;;4990480;28;20060;-72
2023/09/21 00:55:30;;;;;;;1.63;0.60;;;17.70;99.90;;;;;;5008456;28;20034;-72
2023/09/21 00:58:07;;;;;;;1.45;0.50;;;17.70;99.90;;;;;;5015488;28;20037;-72
2023/09/21 01:00:34;;;;;;;2.15;0.60;;;17.70;99.90;;;;;;4998742;28;20057;-72
2023/09/21 01:03:37;;;;;;;3.28;0.82;;;17.70;99.90;;;;;;5013194;28;20260;-73
2023/09/21 01:05:55;;;;;;;1.13;0.50;;;17.70;99.90;;;;;;5009279;28;20041;-72
2023/09/21 01:08:28;;;;;;;1.45;0.77;;;17.80;99.90;;;;;;4982749;28;20040;-72
2023/09/21 01:10:57;;;;;;;2.65;0.70;;;17.70;99.90;;;;;;4998441;28;20030;-73
2023/09/21 01:13:25;;;;;;;1.75;0.50;;;17.70;99.90;;;;;;4996832;28;20400;-72
2023/09/21 01:16:11;;;;;;;2.25;0.55;;;17.70;99.90;;;;;;4983644;28;20380;-73
2023/09/21 01:18:41;;;;;;;2.13;0.73;;;17.70;99.90;;;;;;4998595;28;20052;-72
2023/09/21 01:21:10;;;;;;;2.75;0.73;;;17.60;99.90;;;;;;4999813;28;20045;-72
2023/09/21 01:23:42;;;;;;;2.90;0.60;;;17.60;99.90;;;;;;4996502;28;20037;-72
2023/09/21 01:26:08;;;;;;;2.13;0.57;;;17.60;99.90;;;;;;4995696;28;20037;-73
2023/09/21 01:28:36;;;;;;;2.10;0.70;;;17.60;99.90;;;;;;5012275;28;20029;-73
2023/09/21 01:31:05;;;;;;;2.42;0.60;;;17.60;99.90;;;;;;4996395;28;20044;-73
2023/09/21 01:33:35;;;;;;;1.63;0.60;;;17.60;99.90;;;;;;4996115;28;20037;-73
2023/09/21 01:36:03;;;;;;;2.08;0.70;;;17.60;99.90;;;;;;5015862;28;20049;-72
2023/09/21 01:38:29;;;;;;;1.20;0.55;;;17.60;99.90;;;;;;5017029;28;20044;-73
2023/09/21 01:40:59;;;;;;;2.03;0.60;;;17.60;99.90;;;;;;4998799;28;20045;-73
2023/09/21 01:43:25;;;;;;;2.45;0.70;;;17.60;99.90;;;;;;4984813;28;20040;-73
2023/09/21 01:45:52;;;;;;;1.70;0.63;;;17.60;99.90;;;;;;4998450;28;20572;-72
2023/09/21 01:48:19;;;;;;;1.60;0.50;;;17.60;99.90;;;;;;4997606;28;20036;-74
2023/09/21 01:50:47;;;;;;;1.60;0.50;;;17.60;99.90;;;;;;5013068;28;20443;-73
2023/09/21 01:53:16;;;;;;;1.60;0.50;;;17.60;99.90;;;;;;4997522;28;20048;-73
2023/09/21 01:55:44;;;;;;;2.78;0.70;;;17.60;99.90;;;;;;4999429;28;20040;-73
2023/09/21 01:58:11;;;;;;;2.00;0.50;;;17.60;99.90;;;;;;4988428;28;20057;-73
2023/09/21 02:00:39;;;;;;;1.95;0.60;;;17.70;99.90;;;;;;5015017;28;20048;-73
2023/09/21 02:03:12;;;;;;;2.08;0.70;;;17.70;99.90;;;;;;4996995;28;20042;-73
2023/09/21 02:05:40;;;;;;;2.10;0.60;;;17.70;99.90;;;;;;4999230;28;20041;-74
2023/09/21 02:08:08;;;;;;;2.13;0.70;;;17.80;99.90;;;;;;4997140;28;20045;-74
2023/09/21 02:10:38;;;;;;;2.60;0.80;;;17.70;99.90;;;;;;5015077;28;20034;-73
2023/09/21 02:13:08;;;;;;;2.92;0.60;;;17.80;99.90;;;;;;5015141;28;20040;-73
2023/09/21 02:15:39;;;;;;;2.53;0.50;;;17.80;99.90;;;;;;4999320;28;20038;-73
2023/09/21 02:18:08;;;;;;;1.40;0.70;;;17.80;99.90;;;;;;5013446;28;20484;-73
2023/09/21 02:20:35;;;;;;;3.67;0.60;;;17.80;99.90;;;;;;4996844;28;20037;-74
2023/09/21 02:23:03;;;;;;;1.42;0.50;;;17.80;99.90;;;;;;4995174;28;20046;-73
2023/09/21 02:25:34;;;;;;;2.55;1.35;;;17.80;99.90;;;;;;4998051;28;20038;-73
2023/09/21 02:28:09;;;;;;;1.90;0.70;;;17.80;99.90;;;;;;4997068;28;20506;-73
2023/09/21 02:30:37;;;;;;;2.33;0.70;;;17.90;99.90;;;;;;4998785;28;20036;-73
2023/09/21 02:33:07;;;;;;;1.88;0.75;;;17.90;99.90;;;;;;4996188;28;20033;-73
2023/09/21 02:35:40;;;;;;;3.20;0.60;;;17.80;99.90;;;;;;5014639;28;20480;-73
2023/09/21 02:38:09;;;;;;;1.45;0.90;;;17.90;99.90;;;;;;5011530;28;20049;-73
2023/09/21 02:40:36;;;;;;;1.38;0.60;;;17.90;99.90;;;;;;4984499;28;20048;-73
2023/09/21 02:43:03;;;;;;;3.03;0.63;;;17.90;99.90;;;;;;5012851;28;20060;-74
2023/09/21 02:45:30;;;;;;;1.70;0.70;;;17.90;99.90;;;;;;4991629;28;22703;-73
2023/09/21 02:48:00;;;;;;;1.65;0.60;;;17.90;99.90;;;;;;4996641;28;20033;-73
2023/09/21 02:50:29;;;;;;;3.40;0.57;;;17.90;99.90;;;;;;4980688;28;20037;-73
2023/09/21 02:53:08;;;;;;;1.42;0.50;;;18.00;99.90;;;;;;4997821;28;20476;-73
2023/09/21 02:55:36;;;;;;;3.05;0.50;;;18.00;99.90;;;;;;4995785;28;20692;-73
2023/09/21 02:58:13;;;;;;;2.42;0.70;;;18.20;99.90;;;;;;4997031;28;20033;-73
2023/09/21 03:00:57;;;;;;;1.45;0.45;;;18.30;99.90;;;;;;5025623;28;20038;-73
2023/09/21 03:03:24;;;;;;;1.88;0.70;;;18.30;99.90;;;;;;4995900;28;20029;-73
2023/09/21 03:05:52;;;;;;;2.35;0.60;;;18.40;99.90;;;;;;5001401;28;20042;-72
2023/09/21 03:08:19;;;;;;;1.35;0.60;;;18.40;99.90;;;;;;4996668;28;20041;-73
2023/09/21 03:10:52;;;;;;;2.20;0.60;;;18.40;99.90;;;;;;4997386;28;20033;-73
2023/09/21 03:13:19;;;;;;;2.20;0.65;;;18.40;99.90;;;;;;4982009;28;20037;-72
2023/09/21 03:15:50;;;;;;;1.70;0.52;;;18.50;99.90;;;;;;5014103;28;20037;-73
2023/09/21 03:18:18;;;;;;;2.60;0.60;;;18.50;99.90;;;;;;5012809;28;20037;-73
2023/09/21 03:20:46;;;;;;;1.60;0.50;;;18.50;99.90;;;;;;5014627;28;20273;-73
2023/09/21 03:23:15;;;;;;;1.85;0.65;;;18.50;99.90;;;;;;5011301;28;20048;-73
2023/09/21 03:25:44;;;;;;;1.42;0.52;;;18.50;99.90;;;;;;4999511;28;20053;-74
2023/09/21 03:28:16;;;;;;;1.65;0.52;;;18.60;99.90;;;;;;5012961;28;20030;-73
2023/09/21 03:30:45;;;;;;;0.85;0.40;;;18.60;99.90;;;;;;4995744;28;20036;-73
2023/09/21 03:33:14;;;;;;;1.52;0.65;;;18.70;99.90;;;;;;5010287;28;20033;-73
2023/09/21 03:35:41;;;;;;;2.80;0.60;;;18.60;99.90;;;;;;5029377;28;20633;-73
2023/09/21 03:38:12;;;;;;;1.05;0.57;;;18.70;99.90;;;;;;5013831;28;20568;-73
2023/09/21 03:40:42;;;;;;;2.33;0.65;;;18.70;99.90;;;;;;5012769;28;20045;-74
2023/09/21 03:43:10;;;;;;;1.90;0.50;;;18.70;99.90;;;;;;5011877;28;20062;-74
2023/09/21 03:45:37;;;;;;;1.48;0.50;;;18.70;99.90;;;;;;4996706;28;20467;-74
2023/09/21 03:48:06;;;;;;;1.55;0.50;;;18.70;99.90;;;;;;4978671;28;20056;-73
2023/09/21 03:50:33;;;;;;;3.00;0.80;;;18.70;99.90;;;;;;4980119;28;20030;-73
2023/09/21 03:52:59;;;;;;;2.75;0.60;;;18.70;99.90;;;;;;5017799;28;20029;-73
2023/09/21 03:55:26;;;;;;;2.22;0.80;;;18.70;99.90;;;;;;4998980;28;20655;-73
2023/09/21 03:57:52;;;;;;;1.63;0.60;;;18.70;99.90;;;;;;5014106;28;20042;-73
2023/09/21 04:03:01;;;;;;;1.67;0.60;;;18.80;99.90;;;;;;5016398;28;20822;-73
2023/09/21 04:05:34;;;;;;;1.88;0.50;;;18.80;99.90;;;;;;4984304;28;20038;-73
2023/09/21 04:08:05;;;;;;;2.92;0.50;;;18.80;99.90;;;;;;4999818;28;20033;-72
2023/09/21 04:10:33;;;;;;;1.00;0.50;;;18.90;99.90;;;;;;4996274;28;20507;-72
2023/09/21 04:13:00;;;;;;;1.88;0.50;;;18.90;99.90;;;;;;5008959;28;20281;-73
2023/09/21 04:15:28;;;;;;;2.15;0.52;;;18.90;99.90;;;;;;4998680;28;20432;-73
2023/09/21 04:17:57;;;;;;;1.20;0.60;;;18.90;99.90;;;;;;4998881;28;20046;-72
2023/09/21 04:20:24;;;;;;;1.10;0.50;;;19.00;99.90;;;;;;5016302;28;20059;-74
2023/09/21 04:22:52;;;;;;;1.67;0.55;;;19.00;99.90;;;;;;4983932;28;20041;-73
2023/09/21 04:25:18;;;;;;;1.58;0.55;;;19.00;99.90;;;;;;5017814;28;20036;-72
2023/09/21 04:27:53;;;;;;;3.35;0.90;;;19.00;99.90;;;;;;4998375;28;20400;-73
2023/09/21 04:30:23;;;;;;;1.35;0.68;;;19.00;99.90;;;;;;5006342;28;20507;-73
2023/09/21 04:32:53;;;;;;;1.63;0.70;;;19.00;99.90;;;;;;4999110;28;20392;-73
2023/09/21 04:35:21;;;;;;;1.50;0.70;;;19.00;99.90;;;;;;5014868;28;20603;-73
2023/09/21 04:37:51;;;;;;;2.20;0.70;;;19.00;99.90;;;;;;5015145;28;20045;-72
2023/09/21 04:40:17;;;;;;;1.95;0.60;;;19.00;99.90;;;;;;4982238;28;20049;-72
2023/09/21 04:42:46;;;;;;;0.85;0.40;;;19.00;99.90;;;;;;4998226;28;20037;-74
2023/09/21 04:45:18;;;;;;;3.83;0.43;;;19.10;99.90;;;;;;4984857;28;20037;-73
2023/09/21 04:47:48;;;;;;;1.80;0.52;;;19.10;99.90;;;;;;4983574;28;20037;-73
2023/09/21 04:50:16;;;;;;;2.03;0.60;;;19.10;99.90;;;;;;5031703;28;20037;-74
2023/09/21 04:52:45;;;;;;;1.50;0.70;;;19.10;99.90;;;;;;5016472;28;20037;-73
2023/09/21 04:55:16;;;;;;;2.03;0.60;;;19.10;99.90;;;;;;4998021;28;20048;-73
2023/09/21 04:57:45;;;;;;;1.63;0.60;;;19.00;99.90;;;;;;4991004;28;20048;-72
2023/09/21 05:00:13;;;;;;;1.27;0.60;;;19.00;99.90;;;;;;4973936;28;20061;-73
2023/09/21 05:02:41;;;;;;;1.90;0.60;;;19.00;99.90;;;;;;5002088;28;20068;-72
2023/09/21 05:05:08;;;;;;;2.45;0.70;;;19.00;99.90;;;;;;4993484;28;20060;-72
2023/09/21 05:07:37;;;;;;;1.95;0.82;;;19.00;99.90;;;;;;5006876;28;20041;-73
2023/09/21 05:10:06;;;;;;;1.80;0.80;;;19.00;99.90;;;;;;4988229;28;20321;-73
2023/09/21 05:12:34;;;;;;;2.10;0.60;;;18.90;99.90;;;;;;4983094;28;20394;-73
2023/09/21 05:15:00;;;;;;;2.28;0.70;;;18.90;99.90;;;;;;4976191;28;20025;-74
2023/09/21 05:17:27;;;;;;;1.73;0.55;;;18.80;99.90;;;;;;5014868;28;20037;-74
2023/09/21 05:19:53;;;;;;;2.50;0.70;;;18.80;99.90;;;;;;4997627;28;20041;-74
2023/09/21 05:22:20;;;;;;;2.35;0.60;;;18.90;99.90;;;;;;4996683;28;20052;-73
2023/09/21 05:24:47;;;;;;;1.73;0.52;;;18.80;99.90;;;;;;4999125;28;20030;-73
2023/09/21 05:27:13;;;;;;;1.40;0.57;;;18.80;99.90;;;;;;5015455;28;20048;-73
2023/09/21 05:29:40;;;;;;;1.92;0.60;;;18.70;99.90;;;;;;5012871;28;20033;-73
2023/09/21 05:32:07;;;;;;;1.35;0.60;;;18.70;99.90;;;;;;4995149;28;20022;-73
2023/09/21 05:34:33;;;;;;;2.15;0.60;;;18.70;99.90;;;;;;4999574;28;20035;-74
2023/09/21 05:37:00;;;;;;;1.95;0.60;;;18.70;99.90;;;;;;4998770;28;20036;-72
2023/09/21 05:39:26;;;;;;;2.25;0.70;;;18.70;99.90;;;;;;5014923;28;20037;-72
2023/09/21 05:41:52;;;;;;;1.23;0.50;;;18.80;99.90;;;;;;5013695;28;20041;-73
2023/09/21 05:44:25;;;;;;;1.77;0.60;;;18.80;99.90;;;;;;5013593;28;20457;-73
2023/09/21 05:46:52;;;;;;;3.65;1.80;;;18.80;99.90;;;;;;4996386;28;20029;-74
2023/09/21 05:49:22;;;;;;;1.75;0.80;;;18.80;99.90;;;;;;4995745;28;20269;-74
2023/09/21 05:51:53;;;;;;;4.00;1.90;;;18.80;99.90;;;;;;4996133;28;20053;-75
2023/09/21 05:54:23;;;;;;;5.40;1.40;;;18.80;99.90;;;;;;4999334;28;20040;-76
2023/09/21 05:56:51;;;;;;;2.13;1.15;;;18.80;99.90;;;;;;5014340;28;20270;-75
2023/09/21 05:59:18;;;;;;;2.20;1.10;;;18.80;99.90;;;;;;5011308;28;20041;-75
2023/09/21 06:01:45;;;;;;;3.45;1.92;;;18.80;99.90;;;;;;4996098;28;20038;-75
2023/09/21 06:04:12;;;;;;;4.47;2.10;;;18.80;99.90;;;;;;5030364;28;20033;-76
2023/09/21 06:06:39;;;;;;;5.43;3.38;;;18.90;99.90;;;;;;4996518;28;20102;-76
2023/09/21 06:09:07;;;;;;;2.42;1.55;;;18.90;99.90;;;;;;5014490;28;20399;-76
2023/09/21 06:11:34;;;;;;;2.08;0.80;;;18.90;99.90;;;;;;5013417;28;20039;-76
2023/09/21 06:14:02;;;;;;;2.80;0.80;;;18.90;99.90;;;;;;4997090;28;20347;-78
2023/09/21 06:16:29;;;;;;;2.28;0.70;;;18.80;99.90;;;;;;5013700;28;20029;-77
2023/09/21 06:18:55;;;;;;;2.33;0.60;;;18.80;99.90;;;;;;4997815;28;20041;-78
2023/09/21 06:21:22;;;;;;;4.13;0.77;;;18.90;99.90;;;;;;4996233;28;20041;-77
2023/09/21 06:23:49;;;;;;;3.67;1.33;;;18.80;99.90;;;;;;4980108;28;20056;-81
2023/09/21 06:26:15;;;;;;;3.10;1.10;;;18.80;99.90;;;;;;5013994;28;20041;-77
2023/09/21 06:28:48;;;;;;;3.33;1.42;;;18.80;99.90;;;;;;4996884;28;20041;-77
2023/09/21 06:31:16;;;;;;;3.50;1.05;;;18.80;99.90;;;;;;5011981;28;20025;-77
2023/09/21 06:33:42;;;;;;;2.67;1.58;;;18.90;99.90;;;;;;4978214;28;20038;-77
2023/09/21 06:36:18;;;;;;;3.53;1.00;;;18.90;99.90;;;;;;4996048;28;20506;-77
2023/09/21 06:38:45;;;;;;;1.38;0.60;;;18.90;99.90;;;;;;5011170;28;20041;-77
2023/09/21 06:41:12;;;;;;;1.27;0.70;;;19.00;99.90;;;;;;4996814;28;20041;-78
2023/09/21 06:43:42;;;;;;;1.73;0.70;;;19.00;99.90;;;;;;5011961;28;20828;-78
2023/09/21 06:46:10;;;;;;;2.78;0.80;;;19.00;99.90;;;;;;5011466;28;20029;-78
2023/09/21 06:48:36;;;;;;;1.73;0.90;;;19.00;99.90;;;;;;5011974;28;20044;-76
2023/09/21 06:51:07;;;;;;;2.65;0.98;;;19.00;99.90;;;;;;4997762;28;20030;-76
2023/09/21 06:53:36;;;;;;;1.90;0.60;;;19.00;99.90;;;;;;4961170;28;20041;-75
2023/09/21 06:56:03;;;;;;;4.03;2.13;;;18.90;99.90;;;;;;4986250;28;20029;-74
2023/09/21 06:58:30;;;;;;;2.85;1.30;;;18.90;99.90;;;;;;4995063;28;20469;-74
2023/09/21 07:00:58;;;;;;;2.72;0.65;;;18.90;99.90;;;;;;4966444;28;20036;-74
2023/09/21 07:03:25;;;;;;;2.35;0.60;;;18.80;99.90;;;;;;5007953;28;20040;-75
2023/09/21 07:05:52;;;;;;;1.98;0.80;;;18.80;99.90;;;;;;4992806;28;20022;-75
2023/09/21 07:08:19;;;;;;;3.88;0.82;;;18.70;99.90;;;;;;5012240;28;20507;-74
2023/09/21 07:10:46;;;;;;;1.52;0.70;;;18.60;99.90;;;;;;4991953;28;20044;-77
2023/09/21 07:13:13;;;;;;;1.80;0.85;;;18.40;99.90;;;;;;5007695;28;20476;-79
2023/09/21 07:15:40;;;;;;;2.78;0.80;;;18.30;99.90;;;;;;4979391;28;20030;-78
2023/09/21 07:18:07;;;;;;;1.98;0.60;;;18.20;99.90;;;;;;4982922;28;20056;-77
2023/09/21 07:20:34;;;;;;;3.90;0.70;;;18.10;99.90;;;;;;5008436;28;20034;-79
2023/09/21 07:23:01;;;;;;;2.67;0.60;;;18.00;99.90;;;;;;4982098;28;20036;-76
2023/09/21 07:25:30;;;;;;;1.20;0.60;;;17.90;99.90;;;;;;5012832;28;20029;-75
2023/09/21 07:27:57;;;;;;;2.40;0.80;;;17.90;99.90;;;;;;5000006;28;20025;-76
2023/09/21 07:30:28;;;;;;;3.60;0.70;;;17.90;99.90;;;;;;4998480;28;20041;-76
2023/09/21 07:32:55;;;;;;;3.05;0.70;;;17.80;99.90;;;;;;5006626;28;20040;-76
2023/09/21 07:35:21;;;;;;;2.97;0.98;;;17.80;99.90;;;;;;4992953;28;20042;-75
2023/09/21 07:37:51;;;;;;;1.30;0.70;;;17.80;99.90;;;;;;5015469;28;20480;-76
2023/09/21 07:40:20;;;;;;;1.75;0.70;;;17.80;99.90;;;;;;4998875;28;20041;-76
2023/09/21 07:42:48;;;;;;;2.17;0.82;;;17.80;99.90;;;;;;5013387;28;20045;-76
2023/09/21 07:45:15;;;;;;;2.42;0.80;;;17.80;99.90;;;;;;4997162;28;20052;-76
2023/09/21 07:47:45;;;;;;;1.60;0.80;;;17.80;99.90;;;;;;5015519;28;20079;-75
2023/09/21 07:50:12;;;;;;;1.60;0.80;;;17.70;99.90;;;;;;5013706;28;20045;-76
2023/09/21 07:52:39;;;;;;;2.15;0.80;;;17.70;99.90;;;;;;4997695;28;20038;-77
2023/09/21 07:55:08;;;;;;;1.63;0.77;;;17.70;99.90;;;;;;4999721;28;20038;-77
2023/09/21 07:57:39;;;;;;;2.38;0.70;;;17.70;99.90;;;;;;4983072;28;20042;-77
2023/09/21 08:00:10;;;;;;;2.90;1.00;;;17.70;99.90;;;;;;5001484;28;20392;-76
2023/09/21 08:02:37;;;;;;;2.40;1.00;;;17.70;99.90;;;;;;5014187;28;20441;-77
2023/09/21 08:05:05;;;;;;;7.25;1.63;;;17.70;99.90;;;;;;5013011;28;20400;-76
2023/09/21 08:07:33;;;;;;;3.63;1.80;;;17.70;99.90;;;;;;5012306;28;20033;-76
2023/09/21 08:10:03;;;;;;;5.78;1.85;;;17.70;99.90;;;;;;5015723;28;20036;-77
2023/09/21 08:12:32;;;;;;;3.45;2.00;;;17.70;99.90;;;;;;5007021;28;20476;-76
2023/09/21 08:15:00;;;;;;;3.72;1.40;;;17.70;99.90;;;;;;5012691;28;20041;-76
2023/09/21 08:17:30;;;;;;;1.88;0.88;;;17.70;99.90;;;;;;5015727;28;20484;-77
2023/09/21 08:19:57;;;;;;;1.60;0.70;;;17.60;99.90;;;;;;4983479;28;20497;-76
2023/09/21 08:22:26;;;;;;;2.10;0.70;;;17.70;99.90;;;;;;5014172;28;20068;-78
2023/09/21 08:24:53;;;;;;;2.78;1.17;;;17.70;99.90;;;;;;4996666;28;20042;-76
2023/09/21 08:27:22;;;;;;;1.80;0.82;;;17.60;99.90;;;;;;4997171;28;20026;-76
2023/09/21 08:29:49;;;;;;;2.50;0.88;;;17.60;99.90;;;;;;5015797;28;20415;-76
2023/09/21 08:32:16;;;;;;;1.25;0.70;;;17.60;99.90;;;;;;5013883;28;20029;-77
2023/09/21 08:34:45;;;;;;;2.22;1.02;;;17.70;99.90;;;;;;5014949;28;20496;-76
2023/09/21 08:37:12;;;;;;;3.60;1.30;;;17.60;99.90;;;;;;5011606;28;20043;-76
2023/09/21 08:39:38;;;;;;;2.38;1.55;;;17.60;99.90;;;;;;4997371;28;20492;-75
2023/09/21 08:42:05;;;;;;;1.80;0.90;;;17.60;99.90;;;;;;4983305;28;20049;-75
2023/09/21 08:44:32;;;;;;;2.45;1.00;;;17.60;99.90;;;;;;5007653;28;20025;-75
2023/09/21 08:46:59;;;;;;;4.68;1.70;;;17.60;99.90;;;;;;4999412;28;20037;-74
2023/09/21 08:49:26;;;;;;;2.55;1.52;;;17.60;99.90;;;;;;5014543;28;20112;-77
2023/09/21 08:51:54;;;;;;;2.67;1.42;;;17.60;99.90;;;;;;5015185;28;20045;-75
2023/09/21 08:54:23;;;;;;;3.35;1.77;;;17.60;99.90;;;;;;5015657;28;20029;-79
2023/09/21 08:56:55;;;;;;;2.90;1.48;;;17.60;99.90;;;;;;4996852;28;20044;-73
2023/09/21 08:59:23;;;;;;;4.22;1.55;;;17.60;99.90;;;;;;5013204;28;20034;-75
2023/09/21 09:01:50;;;;;;;2.75;1.35;;;17.60;99.90;;;;;;5011851;28;20060;-74
2023/09/21 09:04:17;;;;;;;10.30;6.63;;;17.60;99.90;;;;;;4998155;28;20052;-75
2023/09/21 09:06:43;;;;;;;11.60;9.30;;;17.60;99.90;;;;;;5018361;28;20044;-75
2023/09/21 09:09:11;;;;;;;10.95;7.15;;;17.60;99.90;;;;;;5029161;28;20282;-76
2023/09/21 09:11:40;;;;;;;4.88;3.80;;;17.60;99.90;;;;;;4998282;28;20040;-77
2023/09/21 09:14:17;;;;;;;3.08;2.42;;;17.60;99.90;;;;;;5004461;28;20037;-76
2023/09/21 09:16:44;;;;;;;4.57;2.17;;;17.60;99.90;;;;;;4983502;28;20423;-74
2023/09/21 09:19:12;;;;;;;5.15;2.40;;;17.60;99.90;;;;;;4998317;28;20384;-75
2023/09/21 09:21:40;;;;;;;3.97;2.25;;;17.60;99.90;;;;;;4998061;28;20040;-75
2023/09/21 09:24:12;;;;;;;2.95;2.00;;;17.60;99.90;;;;;;4994627;28;20523;-75
2023/09/21 09:26:38;;;;;;;2.72;1.38;;;17.70;99.90;;;;;;4997554;28;20025;-74
2023/09/21 09:29:09;;;;;;;4.18;1.75;;;17.70;99.90;;;;;;5011372;28;20036;-75
2023/09/21 09:31:40;;;;;;;3.45;2.20;;;17.70;99.90;;;;;;5014333;28;20353;-75
2023/09/21 09:34:06;;;;;;;2.72;1.95;;;17.70;99.90;;;;;;4995171;28;20037;-75
2023/09/21 09:36:32;;;;;;;4.35;1.92;;;17.70;99.90;;;;;;5015095;28;20033;-74
2023/09/21 09:39:00;;;;;;;3.95;2.13;;;17.70;99.90;;;;;;5013319;28;20057;-75
2023/09/21 09:41:31;;;;;;;2.67;1.95;;;17.80;99.90;;;;;;4998175;28;20041;-75
2023/09/21 09:44:02;;;;;;;4.55;2.75;;;17.80;99.90;;;;;;5013575;28;20029;-74
2023/09/21 09:46:30;;;;;;;3.40;2.90;;;17.80;99.90;;;;;;5028644;28;20036;-74
2023/09/21 09:49:01;;;;;;;3.10;2.80;;;17.80;99.90;;;;;;4995786;28;20376;-74
2023/09/21 09:51:40;;;;;;;2.45;2.20;;;17.90;99.90;;;;;;5014062;28;20037;-75
2023/09/21 09:54:09;;;;;;;2.80;2.35;;;17.90;99.90;;;;;;5012862;28;20369;-74
2023/09/21 09:56:41;;;;;;;3.55;2.92;;;17.90;99.90;;;;;;4994530;28;20021;-74
2023/09/21 09:59:12;;;;;;;3.35;2.53;;;17.90;99.90;;;;;;4997461;28;20036;-74
2023/09/21 10:01:41;;;;;;;2.72;2.38;;;17.90;99.90;;;;;;5012851;28;20026;-75
2023/09/21 10:04:08;;;;;;;2.72;2.10;;;17.90;99.90;;;;;;5013739;28;20044;-74
2023/09/21 10:06:36;;;;;;;2.15;1.67;;;17.90;99.90;;;;;;5014297;28;20399;-76
2023/09/21 10:09:11;;;;;;;3.88;2.10;;;17.90;99.90;;;;;;5013984;28;20036;-75
2023/09/21 10:11:40;;;;;;;2.75;1.80;;;18.00;99.90;;;;;;4996336;28;20425;-76
2023/09/21 10:14:07;;;;;;;3.65;1.40;;;18.10;99.90;;;;;;5015174;28;20030;-74
2023/09/21 10:16:38;;;;;;;1.90;1.20;;;18.10;99.90;;;;;;5013656;28;20060;-74
2023/09/21 10:19:06;;;;;;;2.10;1.00;;;18.10;99.90;;;;;;5014074;28;20064;-76
2023/09/21 10:21:38;;;;;;;1.70;1.13;;;18.20;99.90;;;;;;4983700;28;20030;-74
2023/09/21 10:24:16;;;;;;;2.10;1.00;;;18.20;99.90;;;;;;5028399;28;20373;-74
2023/09/21 10:26:53;;;;;;;2.42;1.00;;;18.10;99.90;;;;;;5014822;28;20343;-74
2023/09/21 10:29:28;;;;;;;1.38;1.02;;;18.20;99.90;;;;;;5013964;28;20052;-74
2023/09/21 10:32:00;;;;;;;2.28;0.98;;;18.10;99.90;;;;;;4997359;28;20033;-73
2023/09/21 10:34:27;;;;;;;2.15;1.10;;;18.10;99.90;;;;;;4995642;28;20182;-74
2023/09/21 10:37:10;;;;;;;2.35;1.67;;;18.10;99.90;;;;;;5014122;28;20029;-74
2023/09/21 10:39:39;;;;;;;2.20;1.10;;;18.10;99.90;;;;;;4994893;28;20069;-74
2023/09/21 10:42:06;;;;;;;1.70;0.90;;;18.00;99.90;;;;;;5013201;28;20030;-74
2023/09/21 10:45:03;;;;;;;1.60;0.82;;;18.00;99.90;;;;;;4981201;28;20029;-74
2023/09/21 10:47:44;;;;;;;1.73;1.13;;;18.00;99.90;;;;;;4996306;28;20029;-74
2023/09/21 10:50:19;;;;;;;1.38;0.75;;;18.00;99.90;;;;;;4997674;28;20037;-74
2023/09/21 10:52:55;;;;;;;2.38;0.70;;;18.00;99.90;;;;;;5013950;28;20033;-75
2023/09/21 10:55:22;;;;;;;1.30;0.60;;;18.00;99.90;;;;;;5012201;28;20129;-74
2023/09/21 10:57:50;;;;;;;1.40;0.50;;;18.10;99.90;;;;;;5007368;28;20427;-76
2023/09/21 11:00:25;;;;;;;1.70;0.68;;;18.20;99.90;;;;;;5012207;28;20038;-74
2023/09/21 11:02:53;;;;;;;2.65;1.00;;;18.30;99.90;;;;;;5012556;28;20383;-75
2023/09/21 11:05:21;;;;;;;4.18;3.67;;;18.40;99.90;;;;;;5010773;28;20037;-75
2023/09/21 11:07:50;;;;;;;5.28;4.55;;;18.50;99.90;;;;;;4995375;28;20045;-76
2023/09/21 11:10:17;;;;;;;4.47;3.53;;;18.60;99.90;;;;;;4995546;28;20036;-75
2023/09/21 11:12:44;;;;;;;3.97;2.42;;;18.70;99.90;;;;;;4993331;28;20045;-75
2023/09/21 11:15:13;;;;;;;5.30;2.83;;;18.80;99.90;;;;;;5013261;28;20397;-75
2023/09/21 11:17:42;;;;;;;6.05;3.38;;;18.80;99.90;;;;;;5011878;28;20029;-75
2023/09/21 11:20:12;;;;;;;5.68;2.30;;;18.80;99.90;;;;;;5011130;28;20033;-74
2023/09/21 11:22:43;;;;;;;3.33;2.55;;;18.80;99.90;;;;;;5009787;28;20409;-74
2023/09/21 11:25:11;;;;;;;3.25;2.25;;;18.90;99.90;;;;;;4971436;28;20041;-74
2023/09/21 11:27:40;;;;;;;3.45;2.20;;;19.10;99.90;;;;;;4984267;28;20026;-74
2023/09/21 11:30:10;;;;;;;3.50;2.63;;;19.20;99.90;;;;;;4995419;28;20045;-74
2023/09/21 11:32:45;;;;;;;3.25;2.00;;;19.30;99.90;;;;;;5014301;28;20038;-74
2023/09/21 11:35:14;;;;;;;3.17;2.42;;;19.30;99.90;;;;;;5009126;28;20030;-74
2023/09/21 11:37:41;;;;;;;3.17;2.13;;;19.40;99.90;;;;;;4997252;28;20512;-74
2023/09/21 11:40:13;;;;;;;3.53;2.83;;;19.40;99.90;;;;;;5010835;28;20456;-75
2023/09/21 11:42:46;;;;;;;6.43;4.82;;;19.50;99.90;;;;;;5012210;28;20484;-74
2023/09/21 11:45:24;;;;;;;4.55;3.65;;;19.50;99.90;;;;;;5010645;28;20088;-75
2023/09/21 11:47:58;;;;;;;3.85;3.45;;;19.50;99.90;;;;;;5012426;28;20404;-73
2023/09/21 11:50:30;;;;;;;2.58;1.55;;;19.50;99.90;;;;;;5010043;28;20143;-74
2023/09/21 11:52:57;;;;;;;1.67;0.90;;;19.30;99.90;;;;;;5010231;28;20029;-74
2023/09/21 11:55:28;;;;;;;1.10;0.60;;;19.00;99.90;;;;;;4994265;28;20042;-74
2023/09/21 11:58:08;;;;;;;1.25;0.70;;;18.70;99.90;;;;;;4984723;28;20392;-74
2023/09/21 12:00:43;;;;;;;2.17;0.68;;;18.60;99.90;;;;;;5001564;28;20048;-74
2023/09/21 12:03:15;;;;;;;1.23;0.52;;;18.50;99.90;;;;;;5011640;28;20052;-74
2023/09/21 12:05:43;;;;;;;1.48;0.80;;;18.40;99.90;;;;;;5012912;28;20041;-75
2023/09/21 12:08:11;;;;;;;1.38;0.60;;;18.30;99.90;;;;;;5012492;28;20052;-75
2023/09/21 12:10:37;;;;;;;0.85;0.50;;;18.10;99.90;;;;;;5011928;28;20064;-74
2023/09/21 12:13:04;;;;;;;1.30;0.70;;;18.00;99.90;;;;;;5014367;28;20036;-75
2023/09/21 12:15:30;;;;;;;0.90;0.40;;;17.90;99.90;;;;;;5015506;28;20399;-74
2023/09/21 12:17:56;;;;;;;1.13;0.60;;;17.80;99.90;;;;;;5014847;28;20045;-73
2023/09/21 12:20:23;;;;;;;1.02;0.40;;;17.60;99.90;;;;;;5000231;28;20558;-73
2023/09/21 12:22:50;;;;;;;1.17;0.38;;;17.40;99.90;;;;;;5017122;28;20056;-75
2023/09/21 12:25:17;;;;;;;2.30;0.32;;;17.30;99.90;;;;;;4999435;28;20420;-75
2023/09/21 12:27:43;;;;;;;0.82;0.40;;;17.10;99.90;;;;;;5000289;28;20037;-75
2023/09/21 12:30:14;;;;;;;0.50;0.30;;;17.10;99.90;;;;;;5015458;28;20037;-74
2023/09/21 12:32:41;;;;;;;1.25;0.70;;;17.00;99.90;;;;;;4998079;28;20393;-74
2023/09/21 12:35:09;;;;;;;1.08;0.45;;;17.00;99.90;;;;;;5015932;28;20032;-74
2023/09/21 12:37:36;;;;;;;0.90;0.40;;;17.00;99.90;;;;;;4999987;28;20480;-76
2023/09/21 12:40:12;;;;;;;1.35;0.50;;;16.90;99.90;;;;;;5012814;28;20068;-75
2023/09/21 12:42:41;;;;;;;0.93;0.40;;;16.70;99.90;;;;;;4998225;28;20037;-75
2023/09/21 12:45:11;;;;;;;2.50;0.70;;;16.60;99.90;;;;;;4997088;28;20392;-74
2023/09/21 12:47:44;;;;;;;1.27;0.35;;;16.50;99.90;;;;;;5017093;28;20413;-75
2023/09/21 12:50:13;;;;;;;0.50;0.30;;;16.40;99.90;;;;;;5012731;28;20037;-74
2023/09/21 12:52:41;;;;;;;0.82;0.32;;;16.40;99.90;;;;;;5015934;28;20029;-74
2023/09/21 12:55:08;;;;;;;1.80;0.40;;;16.40;99.90;;;;;;4997265;28;20045;-75
2023/09/21 12:57:36;;;;;;;0.95;0.30;;;16.40;99.90;;;;;;5003622;28;20037;-74